createdAt,value
2023-01-19T00:02:22.091Z,17.00
2023-01-19T00:05:28.004Z,17.02
2023-01-19T00:08:33.496Z,17.62
2023-01-19T00:11:40.286Z,16.02
2023-01-19T00:14:46.171Z,18.17
2023-01-19T00:17:52.581Z,18.10
2023-01-19T00:21:00.005Z,18.12
2023-01-19T00:24:06.577Z,17.17
2023-01-19T00:27:18.963Z,16.97
2023-01-19T00:30:26.143Z,16.30
2023-01-19T00:33:32.009Z,18.40
2023-01-19T00:36:37.977Z,18.02
2023-01-19T00:39:43.913Z,17.92
2023-01-19T00:42:51.650Z,18.52
2023-01-19T00:46:00.353Z,18.27
2023-01-19T00:49:05.640Z,18.23
2023-01-19T00:52:12.204Z,18.57
2023-01-19T00:55:17.904Z,18.75
2023-01-19T00:58:23.150Z,17.32
2023-01-19T01:01:46.234Z,17.12
2023-01-19T01:04:36.673Z,19.05
2023-01-19T01:07:43.765Z,18.23
2023-01-19T01:10:48.765Z,19.92
2023-01-19T01:13:54.143Z,18.50
2023-01-19T01:17:02.238Z,18.23
2023-01-19T01:20:08.505Z,18.98
2023-01-19T01:23:13.809Z,18.48
2023-01-19T01:26:20.381Z,18.23
2023-01-19T01:29:25.879Z,18.57
2023-01-19T01:32:31.331Z,17.98
2023-01-19T01:35:37.180Z,18.55
2023-01-19T01:38:42.073Z,17.98
2023-01-19T01:41:47.460Z,18.55
2023-01-19T01:45:06.577Z,18.50
2023-01-19T01:48:25.412Z,17.73
2023-01-19T01:51:44.801Z,17.25
2023-01-19T01:54:49.601Z,18.05
2023-01-19T01:57:58.001Z,17.42
2023-01-19T02:01:22.169Z,17.65
2023-01-19T02:04:27.813Z,17.02
2023-01-19T02:07:57.727Z,17.82
2023-01-19T02:11:21.211Z,16.80
2023-01-19T02:14:28.785Z,17.25
2023-01-19T02:17:34.662Z,18.57
2023-01-19T02:20:42.034Z,17.52
2023-01-19T02:23:59.221Z,16.85
2023-01-19T02:27:04.920Z,17.80
2023-01-19T02:30:10.254Z,18.85
2023-01-19T02:33:17.539Z,18.37
2023-01-19T02:36:25.250Z,17.85
2023-01-19T02:39:32.689Z,17.77
2023-01-19T02:42:42.389Z,16.82
2023-01-19T02:45:48.565Z,18.57
2023-01-19T02:48:54.172Z,17.82
2023-01-19T02:51:59.789Z,17.70
2023-01-19T02:55:29.249Z,18.48
2023-01-19T02:58:44.483Z,17.12
2023-01-19T03:02:24.096Z,17.62
2023-01-19T03:05:55.765Z,18.12
2023-01-19T03:09:07.862Z,18.85
2023-01-19T03:12:20.573Z,17.90
2023-01-19T03:15:35.026Z,17.80
2023-01-19T03:18:42.205Z,17.30
2023-01-19T03:21:50.769Z,18.55
2023-01-19T03:25:00.187Z,18.37
2023-01-19T03:28:08.620Z,18.10
2023-01-19T03:31:18.394Z,16.82
2023-01-19T03:34:25.488Z,17.30
2023-01-19T03:37:31.384Z,18.67
2023-01-19T03:40:36.191Z,19.00
2023-01-19T03:43:41.716Z,17.60
2023-01-19T03:46:49.690Z,18.67
2023-01-19T03:49:54.714Z,17.95
2023-01-19T03:53:01.481Z,19.95
2023-01-19T03:56:08.613Z,17.75
2023-01-19T03:59:14.865Z,19.37
2023-01-19T04:02:20.026Z,18.52
2023-01-19T04:05:25.840Z,19.30
2023-01-19T04:08:32.007Z,17.85
2023-01-19T04:11:38.145Z,17.65
2023-01-19T04:14:43.397Z,18.95
2023-01-19T04:17:48.563Z,20.08
2023-01-19T04:20:54.434Z,19.70
2023-01-19T04:24:01.871Z,20.05
2023-01-19T04:27:08.486Z,19.73
2023-01-19T04:30:14.752Z,20.12
2023-01-19T04:33:20.790Z,19.73
2023-01-19T04:36:26.811Z,19.57
2023-01-19T04:39:31.850Z,19.67
2023-01-19T04:42:39.555Z,18.98
2023-01-19T04:45:46.370Z,20.77
2023-01-19T04:48:53.570Z,18.50
2023-01-19T04:52:00.834Z,18.20
2023-01-19T04:55:05.449Z,18.73
2023-01-19T04:58:11.672Z,18.48
2023-01-19T05:01:19.225Z,18.32
2023-01-19T05:04:23.966Z,17.77
2023-01-19T05:07:29.858Z,18.35
2023-01-19T05:10:36.575Z,18.35
2023-01-19T05:13:42.428Z,19.32
2023-01-19T05:16:50.715Z,19.87
2023-01-19T05:19:56.997Z,19.92
2023-01-19T05:23:06.398Z,20.17
2023-01-19T05:26:13.749Z,19.52
2023-01-19T05:29:18.741Z,19.98
2023-01-19T05:32:25.860Z,18.67
2023-01-19T05:35:36.341Z,18.30
2023-01-19T05:38:38.109Z,19.48
2023-01-19T05:41:43.469Z,18.23
2023-01-19T05:44:49.395Z,18.20
2023-01-19T05:47:54.879Z,18.82
2023-01-19T05:51:01.000Z,20.52
2023-01-19T05:54:06.218Z,21.87
2023-01-19T05:57:11.561Z,21.12
2023-01-19T06:00:17.893Z,20.77
2023-01-19T06:03:23.002Z,18.85
2023-01-19T06:06:29.634Z,19.30
2023-01-19T06:09:36.393Z,19.12
2023-01-19T06:12:42.370Z,19.30
2023-01-19T06:15:47.797Z,19.45
2023-01-19T06:18:56.608Z,18.25
2023-01-19T06:22:04.178Z,18.17
2023-01-19T06:25:11.240Z,18.32
2023-01-19T06:28:21.161Z,18.55
2023-01-19T06:31:29.096Z,19.55
2023-01-19T06:34:37.168Z,18.50
2023-01-19T06:37:46.665Z,18.25
2023-01-19T06:40:53.665Z,19.50
2023-01-19T06:44:14.468Z,17.40
2023-01-19T06:47:20.977Z,18.77
2023-01-19T06:50:27.655Z,17.85
2023-01-19T06:53:37.816Z,17.07
2023-01-19T06:56:43.592Z,17.37
2023-01-19T06:59:52.490Z,17.15
2023-01-19T07:02:58.338Z,17.17
2023-01-19T07:06:09.204Z,17.32
2023-01-19T07:09:18.573Z,16.45
2023-01-19T07:15:36.156Z,16.75
2023-01-19T07:18:42.714Z,16.60
2023-01-19T07:21:49.617Z,15.98
2023-01-19T07:24:57.658Z,16.75
2023-01-19T07:28:02.492Z,16.97
2023-01-19T07:31:09.287Z,14.75
2023-01-19T07:34:16.286Z,15.00
2023-01-19T07:38:04.962Z,14.58
2023-01-19T07:41:26.144Z,15.53
2023-01-19T07:44:35.695Z,15.60
2023-01-19T07:50:54.898Z,15.58
2023-01-19T07:54:02.127Z,15.88
2023-01-19T07:57:11.027Z,15.38
2023-01-19T08:00:16.465Z,16.45
2023-01-19T08:03:22.138Z,14.23
2023-01-19T08:06:37.592Z,14.45
2023-01-19T08:09:44.955Z,14.20
2023-01-19T08:12:51.480Z,14.38
2023-01-19T08:15:59.418Z,13.22
2023-01-19T08:19:05.253Z,12.85
2023-01-19T08:22:13.811Z,13.05
2023-01-19T08:25:21.167Z,13.70
2023-01-19T08:28:30.869Z,13.83
2023-01-19T08:31:40.241Z,13.75
2023-01-19T08:34:46.981Z,12.98
2023-01-19T08:37:54.654Z,11.85
2023-01-19T08:41:04.893Z,12.15
2023-01-19T08:44:12.167Z,11.95
2023-01-19T08:47:19.876Z,12.50
2023-01-19T08:50:26.602Z,12.05
2023-01-19T08:53:32.874Z,10.93
2023-01-19T08:56:41.363Z,11.70
2023-01-19T08:59:45.978Z,10.75
2023-01-19T09:02:52.502Z,11.03
2023-01-19T09:05:59.141Z,10.78
2023-01-19T09:09:05.936Z,10.20
2023-01-19T09:12:10.712Z,9.48
2023-01-19T09:15:17.511Z,9.95
2023-01-19T09:18:25.818Z,10.28
2023-01-19T09:21:31.446Z,10.43
2023-01-19T09:24:38.708Z,9.28
2023-01-19T09:27:49.806Z,9.00
2023-01-19T09:30:58.744Z,9.25
2023-01-19T09:34:05.993Z,8.83
2023-01-19T09:37:12.423Z,8.03
2023-01-19T09:40:22.510Z,9.28
2023-01-19T09:43:49.824Z,9.10
2023-01-19T09:46:58.050Z,8.03
2023-01-19T09:50:14.741Z,8.23
2023-01-19T09:53:30.649Z,8.38
2023-01-19T09:56:35.892Z,9.93
2023-01-19T09:59:46.332Z,8.75
2023-01-19T10:03:01.601Z,9.00
2023-01-19T10:06:19.664Z,7.90
2023-01-19T10:09:49.315Z,8.15
2023-01-19T10:13:40.339Z,8.45
2023-01-19T10:17:07.548Z,8.10
2023-01-19T10:20:16.377Z,7.92
2023-01-19T10:23:29.747Z,8.23
2023-01-19T10:26:53.099Z,7.33
2023-01-19T10:29:59.329Z,8.15
2023-01-19T10:33:04.373Z,7.95
2023-01-19T10:36:11.656Z,7.25
2023-01-19T10:39:20.263Z,6.78
2023-01-19T10:42:29.542Z,6.67
2023-01-19T10:45:43.430Z,6.37
2023-01-19T10:48:58.115Z,6.50
2023-01-19T10:52:08.632Z,7.25
2023-01-19T10:55:19.669Z,6.03
2023-01-19T10:58:44.005Z,6.78
2023-01-19T11:01:51.568Z,6.60
2023-01-19T11:05:01.799Z,6.53
2023-01-19T11:08:07.392Z,5.85
2023-01-19T11:11:16.696Z,7.08
2023-01-19T11:14:29.766Z,5.62
2023-01-19T11:17:37.183Z,6.50
2023-01-19T11:20:48.141Z,8.08
2023-01-19T11:24:06.185Z,8.85
2023-01-19T11:27:14.187Z,7.08
2023-01-19T11:30:38.639Z,8.88
2023-01-19T11:33:59.340Z,8.87
2023-01-19T11:37:31.309Z,8.55
2023-01-19T11:40:38.465Z,7.83
2023-01-19T11:43:49.242Z,7.50
2023-01-19T11:46:52.356Z,7.87
2023-01-19T11:50:01.747Z,7.65
2023-01-19T11:53:16.420Z,6.62
2023-01-19T11:56:31.327Z,7.70
2023-01-19T11:59:36.439Z,8.70
2023-01-19T12:02:58.254Z,6.33
2023-01-19T12:06:06.576Z,7.22
2023-01-19T12:09:15.849Z,6.78
2023-01-19T12:12:40.749Z,6.08
2023-01-19T12:15:57.282Z,6.47
2023-01-19T12:19:20.258Z,5.75
2023-01-19T12:22:30.310Z,6.45
2023-01-19T12:25:40.980Z,6.80
2023-01-19T12:28:50.982Z,7.35
2023-01-19T12:31:58.576Z,6.72
2023-01-19T12:35:06.770Z,6.72
2023-01-19T12:38:13.033Z,6.35
2023-01-19T12:41:42.476Z,6.95
2023-01-19T12:44:48.049Z,7.22
2023-01-19T12:47:55.436Z,7.60
2023-01-19T12:51:02.389Z,7.80
2023-01-19T12:54:11.090Z,7.65
2023-01-19T12:57:21.626Z,7.40
2023-01-19T13:00:41.630Z,7.30
2023-01-19T13:04:18.857Z,7.47
2023-01-19T13:07:28.155Z,7.03
2023-01-19T13:11:19.141Z,7.45
2023-01-19T13:14:50.509Z,8.03
2023-01-19T13:18:09.771Z,7.72
2023-01-19T13:21:23.180Z,7.78
2023-01-19T13:24:30.781Z,8.68
2023-01-19T13:27:36.652Z,9.08
2023-01-19T13:30:43.613Z,9.48
2023-01-19T13:34:05.785Z,9.60
2023-01-19T13:37:13.358Z,8.00
2023-01-19T13:40:21.661Z,8.13
2023-01-19T13:43:41.333Z,8.55
2023-01-19T13:46:47.147Z,8.50
2023-01-19T13:49:55.737Z,9.08
2023-01-19T13:53:04.004Z,8.05
2023-01-19T13:56:35.650Z,7.62
2023-01-19T13:59:43.367Z,9.00
2023-01-19T14:02:48.704Z,8.93
2023-01-19T14:05:57.635Z,8.90
2023-01-19T14:09:24.392Z,7.17
2023-01-19T14:12:32.911Z,8.33
2023-01-19T14:15:38.774Z,7.90
2023-01-19T14:18:47.468Z,7.92
2023-01-19T14:21:54.647Z,8.15
2023-01-19T14:25:01.034Z,8.25
2023-01-19T14:28:07.028Z,8.90
2023-01-19T14:31:13.608Z,8.25
2023-01-19T14:34:19.201Z,8.50
2023-01-19T14:37:38.552Z,8.35
2023-01-19T14:40:44.419Z,6.87
2023-01-19T14:43:52.351Z,8.28
2023-01-19T14:47:02.160Z,7.42
2023-01-19T14:50:07.853Z,7.90
2023-01-19T14:53:22.959Z,8.30
2023-01-19T14:56:43.991Z,8.00
2023-01-19T14:59:51.721Z,10.45
2023-01-19T15:03:02.799Z,9.23
2023-01-19T15:06:11.373Z,9.00
2023-01-19T15:09:15.737Z,8.33
2023-01-19T15:12:21.905Z,8.68
2023-01-19T15:15:32.593Z,10.70
2023-01-19T15:18:40.382Z,10.03
2023-01-19T15:21:47.586Z,10.30
2023-01-19T15:24:53.103Z,9.58
2023-01-19T15:27:58.957Z,9.73
2023-01-19T15:31:04.875Z,10.43
2023-01-19T15:34:11.219Z,11.25
2023-01-19T15:37:16.383Z,10.58
2023-01-19T15:40:23.535Z,11.10
2023-01-19T15:43:29.511Z,11.18
2023-01-19T15:46:38.011Z,10.90
2023-01-19T15:49:42.839Z,12.50
2023-01-19T15:52:48.705Z,11.22
2023-01-19T15:55:53.840Z,12.25
2023-01-19T15:58:58.696Z,11.33
2023-01-19T16:02:04.464Z,10.45
2023-01-19T16:05:10.553Z,9.03
2023-01-19T16:08:18.296Z,9.98
2023-01-19T16:11:27.014Z,9.75
2023-01-19T16:14:33.323Z,8.53
2023-01-19T16:17:39.428Z,9.20
2023-01-19T16:20:46.056Z,10.03
2023-01-19T16:23:50.969Z,9.78
2023-01-19T16:26:59.386Z,9.70
2023-01-19T16:30:10.811Z,9.85
2023-01-19T16:33:19.377Z,10.30
2023-01-19T16:36:43.881Z,10.13
2023-01-19T16:39:52.047Z,9.95
2023-01-19T16:42:57.485Z,10.18
2023-01-19T16:46:17.489Z,10.72
2023-01-19T16:49:28.680Z,10.10
2023-01-19T16:52:33.778Z,10.13
2023-01-19T16:55:38.785Z,10.45
2023-01-19T16:58:47.467Z,10.08
2023-01-19T17:01:53.436Z,11.70
2023-01-19T17:04:59.401Z,10.70
2023-01-19T17:08:05.474Z,11.75
2023-01-19T17:11:11.287Z,11.48
2023-01-19T17:14:19.002Z,13.20
2023-01-19T17:17:24.604Z,11.80
2023-01-19T17:20:30.582Z,12.07
2023-01-19T17:23:35.557Z,13.08
2023-01-19T17:26:43.006Z,12.75
2023-01-19T17:29:49.931Z,13.20
2023-01-19T17:32:56.517Z,14.13
2023-01-19T17:36:02.294Z,13.62
2023-01-19T17:39:09.593Z,13.65
2023-01-19T17:42:15.860Z,14.07
2023-01-19T17:45:21.914Z,13.10
2023-01-19T17:48:28.726Z,13.98
2023-01-19T17:51:36.124Z,14.07
2023-01-19T17:54:42.410Z,14.95
2023-01-19T17:57:49.363Z,14.85
2023-01-19T18:00:56.455Z,14.83
2023-01-19T18:04:03.353Z,14.80
2023-01-19T18:07:08.534Z,15.08
2023-01-19T18:10:13.555Z,14.78
2023-01-19T18:13:18.842Z,15.93
2023-01-19T18:16:26.057Z,15.20
2023-01-19T18:19:30.949Z,15.08
2023-01-19T18:22:36.149Z,14.90
2023-01-19T18:25:42.227Z,15.25
2023-01-19T18:28:47.107Z,14.58
2023-01-19T18:31:53.276Z,15.53
2023-01-19T18:35:00.448Z,16.40
2023-01-19T18:38:05.980Z,16.42
2023-01-19T18:41:28.979Z,16.23
2023-01-19T18:44:35.613Z,14.78
2023-01-19T18:47:42.270Z,17.10
2023-01-19T18:50:47.735Z,16.32
2023-01-19T18:53:53.825Z,17.02
2023-01-19T18:57:02.044Z,18.23
2023-01-19T19:00:08.829Z,17.23
2023-01-19T19:03:18.358Z,17.80
2023-01-19T19:06:26.819Z,17.82
2023-01-19T19:09:33.755Z,17.75
2023-01-19T19:12:39.591Z,18.57
2023-01-19T19:15:45.905Z,18.07
2023-01-19T19:18:51.172Z,18.15
2023-01-19T19:21:58.962Z,18.73
2023-01-19T19:25:07.289Z,17.02
2023-01-19T19:28:12.716Z,19.07
2023-01-19T19:31:26.733Z,18.17
2023-01-19T19:34:31.308Z,17.77
2023-01-19T19:37:37.269Z,18.98
2023-01-19T19:40:42.581Z,19.10
2023-01-19T19:43:48.487Z,19.10
2023-01-19T19:46:54.801Z,20.75
2023-01-19T19:50:03.001Z,19.80
2023-01-19T19:53:08.996Z,18.75
2023-01-19T19:56:17.120Z,19.87
2023-01-19T19:59:23.133Z,19.37
2023-01-19T20:02:28.930Z,18.75
2023-01-19T20:05:36.180Z,18.95
2023-01-19T20:08:44.227Z,18.40
2023-01-19T20:11:50.573Z,19.00
2023-01-19T20:14:57.782Z,18.02
2023-01-19T20:18:04.103Z,19.73
2023-01-19T20:21:13.688Z,18.30
2023-01-19T20:24:23.972Z,18.52
2023-01-19T20:27:31.619Z,18.37
2023-01-19T20:30:37.302Z,19.00
2023-01-19T20:33:43.665Z,18.62
2023-01-19T20:36:54.594Z,17.95
2023-01-19T20:40:00.301Z,18.32
2023-01-19T20:43:06.667Z,18.67
2023-01-19T20:46:12.280Z,19.17
2023-01-19T20:49:18.214Z,19.10
2023-01-19T20:52:24.624Z,19.85
2023-01-19T20:55:30.838Z,18.92
2023-01-19T20:58:37.751Z,17.98
2023-01-19T21:01:43.693Z,19.82
2023-01-19T21:04:52.431Z,19.50
2023-01-19T21:07:58.164Z,18.87
2023-01-19T21:11:03.625Z,17.90
2023-01-19T21:14:09.080Z,19.48
2023-01-19T21:17:15.808Z,18.67
2023-01-19T21:20:24.320Z,19.55
2023-01-19T21:23:30.010Z,17.70
2023-01-19T21:26:39.305Z,20.62
2023-01-19T21:29:47.172Z,20.27
2023-01-19T21:32:55.516Z,21.15
2023-01-19T21:36:12.243Z,19.32
2023-01-19T21:39:19.719Z,20.17
2023-01-19T21:42:25.584Z,19.70
2023-01-19T21:45:32.309Z,19.87
2023-01-19T21:48:37.743Z,19.98
2023-01-19T21:51:45.567Z,19.85
2023-01-19T21:54:52.451Z,20.17
2023-01-19T21:57:58.932Z,20.52
2023-01-19T22:01:06.017Z,18.07
2023-01-19T22:04:12.078Z,18.82
2023-01-19T22:07:16.761Z,19.80
2023-01-19T22:10:25.024Z,19.02
2023-01-19T22:13:31.397Z,21.00
2023-01-19T22:16:37.740Z,20.23
2023-01-19T22:19:44.394Z,19.80
2023-01-19T22:22:50.156Z,19.90
2023-01-19T22:25:55.385Z,19.17
2023-01-19T22:29:02.182Z,19.80
2023-01-19T22:32:07.882Z,20.35
2023-01-19T22:35:13.100Z,19.60
2023-01-19T22:38:19.569Z,19.82
2023-01-19T22:41:38.533Z,18.17
2023-01-19T22:44:44.285Z,18.75
2023-01-19T22:47:50.805Z,18.67
2023-01-19T22:50:58.377Z,19.85
2023-01-19T22:54:04.018Z,18.90
2023-01-19T22:57:09.224Z,19.12
2023-01-19T23:00:15.315Z,18.15
2023-01-19T23:03:21.811Z,17.25
2023-01-19T23:06:30.416Z,19.75
2023-01-19T23:09:36.175Z,19.50
2023-01-19T23:12:41.680Z,20.88
2023-01-19T23:15:48.488Z,19.27
2023-01-19T23:18:54.843Z,19.55
2023-01-19T23:22:00.802Z,19.85
2023-01-19T23:25:06.031Z,20.27
2023-01-19T23:28:11.533Z,20.05
2023-01-19T23:31:18.350Z,19.30
2023-01-19T23:34:25.314Z,18.77
2023-01-19T23:37:30.974Z,21.15
2023-01-19T23:40:36.538Z,18.87
2023-01-19T23:43:42.638Z,18.95
2023-01-19T23:46:47.809Z,19.27
2023-01-19T23:49:53.825Z,18.95
2023-01-19T23:53:01.265Z,18.98
2023-01-19T23:56:07.642Z,18.92
2023-01-19T23:59:18.324Z,20.95
